Time;durP1;ratioP1;P1;durP2;ratioP2;P2;SDS_P1;SDS_P2;PMS_P1;PMS_P2;Temp;Humidity;BMP_temperature;BMP_pressure;BME280_temperature;BME280_humidity;BME280_pressure;Samples;Min_cycle;Max_cycle;Signal;HPM_P1;HPM_P2
2022/04/01 00:01:44;;;;;;;61.85;32.73;;;;;;;5.58;100.00;98569.59;1756238;81;21537;-69
2022/04/01 00:04:11;;;;;;;58.25;31.20;;;;;;;5.58;100.00;98551.78;1756215;81;21321;-68
2022/04/01 00:06:38;;;;;;;51.63;27.93;;;;;;;5.58;100.00;98556.53;1756315;81;20945;-69
2022/04/01 00:09:06;;;;;;;45.83;26.77;;;;;;;5.59;100.00;98571.31;1756414;81;20997;-68
2022/04/01 00:11:33;;;;;;;47.35;26.75;;;;;;;5.62;100.00;98576.39;1756224;81;21090;-67
2022/04/01 00:13:59;;;;;;;43.23;22.27;;;;;;;5.61;100.00;98581.23;1756545;81;20989;-68
2022/04/01 00:16:26;;;;;;;45.58;25.48;;;;;;;5.62;100.00;98577.70;1756448;81;21267;-69
2022/04/01 00:18:55;;;;;;;48.17;24.75;;;;;;;5.68;100.00;98560.48;1756321;81;21574;-68
2022/04/01 00:21:22;;;;;;;43.45;23.22;;;;;;;5.63;100.00;98570.24;1756325;81;21041;-67
2022/04/01 00:23:48;;;;;;;42.40;22.75;;;;;;;5.62;100.00;98565.95;1756362;81;21065;-69
2022/04/01 00:26:15;;;;;;;43.15;23.70;;;;;;;5.66;100.00;98554.47;1756186;81;21061;-68
2022/04/01 00:28:41;;;;;;;46.15;24.63;;;;;;;5.63;100.00;98546.73;1756453;81;22061;-69
2022/04/01 00:31:10;;;;;;;41.08;23.70;;;;;;;5.66;100.00;98544.02;1756350;81;21533;-67
2022/04/01 00:33:37;;;;;;;44.48;25.17;;;;;;;5.67;100.00;98530.03;1750421;81;21061;-67
2022/04/01 00:36:05;;;;;;;42.33;23.75;;;;;;;5.66;100.00;98515.28;1748090;82;20994;-69
2022/04/01 00:38:32;;;;;;;42.40;25.60;;;;;;;5.70;100.00;98508.61;1748422;82;21085;-69
2022/04/01 00:41:00;;;;;;;46.33;25.82;;;;;;;5.65;100.00;98496.59;1748095;81;21509;-69
2022/04/01 00:43:32;;;;;;;41.58;24.50;;;;;;;5.72;100.00;98497.65;1748206;82;20994;-69
2022/04/01 00:46:01;;;;;;;47.20;27.87;;;;;;;5.89;100.00;98493.86;1748101;82;21025;-68
2022/04/01 00:48:28;;;;;;;51.77;27.05;;;;;;;5.83;100.00;98492.81;1748123;82;21045;-68
2022/04/01 00:50:55;;;;;;;45.35;26.95;;;;;;;5.75;100.00;98489.67;1748022;81;21126;-68
2022/04/01 00:53:22;;;;;;;49.93;28.52;;;;;;;5.76;100.00;98488.77;1748006;82;21132;-68
2022/04/01 00:55:49;;;;;;;46.60;27.75;;;;;;;5.79;100.00;98484.24;1747951;82;21007;-68
2022/04/01 00:58:15;;;;;;;48.83;28.23;;;;;;;5.76;100.00;98475.70;1741928;82;21045;-68
2022/04/01 01:00:43;;;;;;;47.88;27.52;;;;;;;5.78;100.00;98481.72;1735228;82;21073;-68
2022/04/01 01:03:10;;;;;;;51.42;28.70;;;;;;;5.79;100.00;98486.02;1734760;82;21089;-68
2022/04/01 01:05:38;;;;;;;47.58;26.97;;;;;;;5.79;100.00;98492.08;1734874;82;21058;-69
2022/04/01 01:08:07;;;;;;;49.00;27.32;;;;;;;5.77;100.00;98493.06;1734721;82;21526;-69
2022/04/01 01:10:35;;;;;;;44.80;27.37;;;;;;;5.78;100.00;98481.72;1734337;82;21081;-68
2022/04/01 01:13:03;;;;;;;49.15;29.65;;;;;;;5.77;100.00;98470.86;1734119;82;21006;-68
2022/04/01 01:15:30;;;;;;;43.65;27.35;;;;;;;5.78;100.00;98475.19;1734304;82;21136;-68
2022/04/01 01:17:57;;;;;;;45.95;28.83;;;;;;;5.78;100.00;98466.05;1734070;82;21207;-69
2022/04/01 01:20:26;;;;;;;51.70;29.20;;;;;;;5.79;100.00;98465.12;1734196;82;21314;-68
2022/04/01 01:22:53;;;;;;;48.60;29.18;;;;;;;5.81;100.00;98467.20;1734058;82;21050;-68
2022/04/01 01:25:21;;;;;;;45.85;27.67;;;;;;;5.80;100.00;98478.59;1734486;82;21218;-68
2022/04/01 01:27:48;;;;;;;54.35;30.00;;;;;;;5.74;100.00;98480.98;1733935;82;21081;-69
2022/04/01 01:30:15;;;;;;;55.17;30.20;;;;;;;5.73;100.00;98488.88;1734313;82;22040;-68
2022/04/01 01:32:43;;;;;;;50.03;29.98;;;;;;;5.76;100.00;98493.53;1734293;82;21042;-69
2022/04/01 01:35:10;;;;;;;46.33;28.55;;;;;;;5.77;100.00;98489.98;1734304;82;21078;-69
2022/04/01 01:37:38;;;;;;;48.50;28.47;;;;;;;5.78;100.00;98489.55;1734216;82;21062;-69
2022/04/01 01:40:09;;;;;;;49.30;28.75;;;;;;;5.81;100.00;98484.19;1713578;82;21601;-68
2022/04/01 01:42:36;;;;;;;46.30;28.95;;;;;;;5.81;100.00;98475.89;1734404;82;21772;-68
2022/04/01 01:45:05;;;;;;;39.45;25.72;;;;;;;5.81;100.00;98470.66;1734409;82;21562;-69
2022/04/01 01:47:32;;;;;;;39.35;25.08;;;;;;;5.76;100.00;98461.34;1734265;82;21034;-68
2022/04/01 01:55:30;;;;;;;45.55;26.20;;;;;;;5.70;100.00;98444.63;1704930;84;21147;-68
2022/04/01 01:57:59;;;;;;;39.42;24.80;;;;;;;5.66;100.00;98436.94;1704662;83;21614;-67
2022/04/01 02:00:27;;;;;;;39.63;25.17;;;;;;;5.73;100.00;98439.25;1704921;83;21097;-69
2022/04/01 02:02:56;;;;;;;43.85;26.23;;;;;;;5.67;100.00;98429.48;1704764;83;21101;-68
2022/04/01 02:05:22;;;;;;;40.65;25.15;;;;;;;5.60;100.00;98426.75;1705080;83;21096;-69
2022/04/01 02:07:49;;;;;;;44.50;26.25;;;;;;;5.79;100.00;98417.63;1704870;83;21542;-68
2022/04/01 02:10:17;;;;;;;38.58;23.32;;;;;;;5.79;100.00;98414.18;1704975;84;21022;-68
2022/04/01 02:12:44;;;;;;;38.92;24.47;;;;;;;5.76;100.00;98413.02;1705072;84;21026;-68
2022/04/01 02:15:12;;;;;;;45.73;24.90;;;;;;;5.77;100.00;98408.17;1704958;83;21074;-68
2022/04/01 02:17:40;;;;;;;45.83;23.90;;;;;;;5.75;100.00;98403.47;1704860;84;20995;-68
2022/04/01 02:20:09;;;;;;;33.80;22.00;;;;;;;5.77;100.00;98399.87;1704998;84;21144;-68
2022/04/01 02:22:39;;;;;;;39.03;23.83;;;;;;;5.75;100.00;98389.11;1704790;83;21046;-69
2022/04/01 02:25:11;;;;;;;40.52;24.95;;;;;;;5.76;100.00;98383.82;1704817;84;20994;-68
2022/04/01 02:27:38;;;;;;;37.90;22.15;;;;;;;5.62;100.00;98370.08;1704926;84;21031;-67
2022/04/01 02:30:10;;;;;;;35.92;21.90;;;;;;;5.60;100.00;98362.77;1704975;84;21063;-68
2022/04/01 02:32:42;;;;;;;34.70;21.50;;;;;;;5.73;100.00;98355.67;1704936;83;21141;-68
2022/04/01 02:35:18;;;;;;;39.60;22.30;;;;;;;5.78;100.00;98343.27;1704190;83;21113;-67
2022/04/01 02:37:47;;;;;;;33.35;21.82;;;;;;;5.59;100.00;98344.11;1704930;83;21522;-69
2022/04/01 02:40:15;;;;;;;32.95;21.05;;;;;;;5.64;100.00;98338.22;1704936;84;21579;-69
2022/04/01 02:42:42;;;;;;;30.65;19.50;;;;;;;5.65;100.00;98346.42;1704908;84;21073;-67
2022/04/01 02:45:11;;;;;;;30.52;20.75;;;;;;;5.54;100.00;98360.89;1705192;83;21159;-69
2022/04/01 02:47:38;;;;;;;31.57;20.00;;;;;;;5.55;100.00;98357.38;1705134;84;21554;-68
2022/04/01 02:50:07;;;;;;;31.27;19.85;;;;;;;5.54;100.00;98340.84;1715618;82;20998;-67
2022/04/01 02:52:36;;;;;;;34.20;21.20;;;;;;;5.54;100.00;98330.39;1734619;82;21202;-69
2022/04/01 02:55:05;;;;;;;30.75;19.45;;;;;;;5.55;100.00;98339.94;1734185;82;21076;-69
2022/04/01 02:57:33;;;;;;;31.52;19.80;;;;;;;5.57;100.00;98335.50;1734527;82;21123;-69
2022/04/01 03:00:01;;;;;;;29.48;18.62;;;;;;;5.46;100.00;98332.52;1746642;81;21041;-68
2022/04/01 03:02:28;;;;;;;26.20;18.55;;;;;;;5.42;100.00;98329.66;1748300;81;21089;-68
2022/04/01 03:04:55;;;;;;;30.68;18.05;;;;;;;5.62;100.00;98323.07;1748270;81;21049;-68
2022/04/01 03:07:23;;;;;;;29.72;18.57;;;;;;;5.69;100.00;98321.03;1748323;82;21025;-67
2022/04/01 03:09:51;;;;;;;28.90;18.57;;;;;;;5.70;100.00;98301.81;1748371;81;21081;-67
2022/04/01 03:12:22;;;;;;;28.23;19.05;;;;;;;5.74;100.00;98301.23;1748195;81;21056;-69
2022/04/01 03:14:51;;;;;;;27.80;19.25;;;;;;;5.73;100.00;98312.58;1748269;82;21069;-69
2022/04/01 03:17:36;;;;;;;27.65;18.60;;;;;;;5.77;100.00;98314.14;1748299;81;21037;-69
2022/04/01 03:20:13;;;;;;;28.87;18.32;;;;;;;5.78;100.00;98320.61;1747540;82;21048;-67
2022/04/01 03:22:37;;;;;;;27.87;18.17;;;;;;;5.80;100.00;98323.16;1748010;82;21033;-68
2022/04/01 03:25:06;;;;;;;25.75;17.98;;;;;;;5.81;100.00;98310.00;1748216;81;21021;-68
2022/04/01 03:27:35;;;;;;;26.07;18.48;;;;;;;5.84;100.00;98308.58;1748180;82;21046;-68
2022/04/01 03:30:02;;;;;;;24.92;17.60;;;;;;;5.83;100.00;98304.25;1748160;81;21038;-68
2022/04/01 03:32:29;;;;;;;23.05;16.35;;;;;;;5.81;100.00;98306.55;1748339;81;21629;-68
2022/04/01 03:34:57;;;;;;;25.23;17.80;;;;;;;5.66;100.00;98311.58;1748191;82;21911;-70
2022/04/01 03:37:23;;;;;;;26.37;18.25;;;;;;;5.70;100.00;98321.88;1748269;81;21029;-69
2022/04/01 03:39:51;;;;;;;26.52;18.02;;;;;;;5.71;100.00;98313.98;1748412;81;21081;-69
2022/04/01 03:42:18;;;;;;;32.20;19.40;;;;;;;5.70;100.00;98325.32;1748321;81;21005;-69
2022/04/01 03:44:46;;;;;;;34.85;21.30;;;;;;;5.73;100.00;98324.33;1748146;82;22255;-69
2022/04/01 03:47:25;;;;;;;35.23;20.20;;;;;;;5.72;100.00;98320.04;1726762;82;21114;-70
2022/04/01 03:49:56;;;;;;;45.73;24.07;;;;;;;5.73;100.00;98313.45;1739983;82;21552;-68
2022/04/01 03:52:25;;;;;;;44.80;25.48;;;;;;;5.73;100.00;98319.98;1718947;83;20993;-67
2022/04/01 03:54:55;;;;;;;48.13;23.45;;;;;;;5.75;100.00;98313.36;1718442;83;21033;-69
2022/04/01 03:57:41;;;;;;;45.78;25.45;;;;;;;5.76;100.00;98320.30;1714979;83;21070;-68
2022/04/01 04:00:22;;;;;;;57.62;28.00;;;;;;;5.81;100.00;98320.92;1709660;83;21249;-68
2022/04/01 04:02:49;;;;;;;55.60;29.48;;;;;;;5.83;100.00;98326.45;1713080;83;21062;-69
2022/04/01 04:05:18;;;;;;;59.63;31.42;;;;;;;5.88;100.00;98322.32;1712707;83;21018;-69
2022/04/01 04:07:46;;;;;;;60.33;30.27;;;;;;;5.90;100.00;98323.10;1712840;83;21494;-69
2022/04/01 04:10:15;;;;;;;58.15;31.35;;;;;;;5.91;100.00;98318.25;1712896;83;21006;-69
2022/04/01 04:12:46;;;;;;;55.33;29.98;;;;;;;5.91;100.00;98324.78;1711047;83;21163;-69
2022/04/01 04:15:13;;;;;;;59.03;30.32;;;;;;;5.90;100.00;98324.41;1684121;83;21057;-70
2022/04/01 04:17:45;;;;;;;54.80;29.75;;;;;;;5.94;100.00;98326.00;1684470;83;21569;-69
2022/04/01 04:20:40;;;;;;;54.70;30.35;;;;;;;6.01;100.00;98333.94;1712477;83;21509;-68
2022/04/01 04:23:17;;;;;;;57.03;30.80;;;;;;;6.00;100.00;98328.30;1691011;83;21616;-68
2022/04/01 04:25:59;;;;;;;45.58;27.42;;;;;;;6.07;100.00;98341.92;1713046;83;21109;-69
2022/04/01 04:28:27;;;;;;;54.35;30.85;;;;;;;6.07;100.00;98338.87;1705580;82;21498;-70
2022/04/01 04:31:01;;;;;;;50.23;29.05;;;;;;;6.17;100.00;98334.52;1709939;83;21616;-68
2022/04/01 04:33:48;;;;;;;45.83;27.65;;;;;;;6.18;100.00;98327.05;1709913;83;21077;-69
2022/04/01 04:36:18;;;;;;;46.25;28.50;;;;;;;6.17;100.00;98313.61;1713058;83;21037;-70
2022/04/01 04:38:52;;;;;;;46.83;29.25;;;;;;;6.18;100.00;98311.38;1712247;83;21283;-69
2022/04/01 04:41:20;;;;;;;46.28;30.30;;;;;;;6.20;100.00;98314.77;1712889;83;21017;-69
2022/04/01 04:43:49;;;;;;;52.75;30.02;;;;;;;6.22;100.00;98306.39;1712219;83;21058;-68
2022/04/01 04:46:16;;;;;;;49.95;31.40;;;;;;;6.25;100.00;98298.39;1712945;83;21052;-68
2022/04/01 04:48:43;;;;;;;54.53;32.05;;;;;;;6.30;100.00;98301.62;1712789;83;21053;-70
2022/04/01 04:51:10;;;;;;;57.58;33.53;;;;;;;6.29;100.00;98294.71;1707777;82;21253;-70
2022/04/01 04:53:39;;;;;;;64.50;36.48;;;;;;;6.36;100.00;98289.56;1737844;82;21629;-68
2022/04/01 04:56:07;;;;;;;72.67;36.53;;;;;;;6.44;100.00;98279.58;1742240;82;20999;-69
2022/04/01 04:58:39;;;;;;;85.35;40.75;;;;;;;6.40;100.00;98272.81;1741881;81;21065;-68
2022/04/01 05:01:31;;;;;;;81.42;39.48;;;;;;;6.38;100.00;98272.03;1733965;82;21097;-69
2022/04/01 05:04:22;;;;;;;71.33;37.03;;;;;;;6.41;100.00;98266.64;1734203;82;21133;-68
2022/04/01 05:06:53;;;;;;;69.92;35.40;;;;;;;6.48;100.00;98264.10;1734225;82;21058;-69
2022/04/01 05:09:47;;;;;;;68.97;39.65;;;;;;;6.44;100.00;98257.36;1717472;82;21045;-69
2022/04/01 05:12:26;;;;;;;71.55;38.95;;;;;;;6.82;100.00;98263.70;1734413;82;21081;-69
2022/04/01 05:15:11;;;;;;;63.25;36.70;;;;;;;6.81;100.00;98262.03;1732371;82;21030;-69
2022/04/01 05:17:49;;;;;;;61.70;34.80;;;;;;;6.81;100.00;98264.64;1734523;82;21155;-70
2022/04/01 05:20:16;;;;;;;55.08;33.25;;;;;;;6.77;100.00;98258.34;1733916;82;21102;-69
2022/04/01 05:23:15;;;;;;;52.10;31.25;;;;;;;6.81;100.00;98250.25;1734236;82;26593;-69
2022/04/01 05:25:51;;;;;;;50.65;31.45;;;;;;;6.80;100.00;98251.63;1734448;82;21069;-70
2022/04/01 05:28:42;;;;;;;47.13;30.43;;;;;;;6.86;100.00;98245.63;1734280;82;21472;-68
2022/04/01 05:31:28;;;;;;;53.83;32.78;;;;;;;6.90;100.00;98247.16;1734225;82;21293;-68
2022/04/01 05:34:08;;;;;;;48.90;29.10;;;;;;;6.92;100.00;98246.63;1734377;82;21101;-69
2022/04/01 05:36:35;;;;;;;50.40;31.12;;;;;;;6.93;100.00;98244.38;1734331;82;21034;-69
2022/04/01 05:39:03;;;;;;;52.08;32.10;;;;;;;7.06;100.00;98244.59;1734269;82;21097;-70
2022/04/01 05:41:30;;;;;;;56.42;32.83;;;;;;;7.05;100.00;98246.80;1734433;82;21078;-68
2022/04/01 05:43:58;;;;;;;51.65;30.25;;;;;;;7.06;100.00;98252.88;1734424;82;21201;-69
2022/04/01 05:46:29;;;;;;;63.08;34.10;;;;;;;7.10;100.00;98251.80;1732758;82;21019;-68
2022/04/01 05:48:58;;;;;;;59.90;33.98;;;;;;;7.14;100.00;98238.94;1733976;82;21039;-69
2022/04/01 05:51:25;;;;;;;59.15;34.88;;;;;;;7.14;100.00;98237.62;1709604;82;21064;-70
2022/04/01 05:53:53;;;;;;;66.07;35.40;;;;;;;7.13;100.00;98235.92;1687661;84;21120;-69
2022/04/01 05:56:21;;;;;;;62.83;36.68;;;;;;;7.13;100.00;98231.99;1707410;84;21237;-70
2022/04/01 05:58:48;;;;;;;79.65;39.40;;;;;;;7.21;100.00;98224.59;1707122;83;21065;-68
2022/04/01 06:02:01;;;;;;;78.80;39.10;;;;;;;7.25;100.00;98226.13;1741054;81;21596;-69
2022/04/01 06:05:17;;;;;;;79.67;38.85;;;;;;;7.27;100.00;98226.89;1755872;81;21061;-69
2022/04/01 06:08:17;;;;;;;71.30;37.85;;;;;;;7.31;100.00;98223.15;1756153;81;21040;-69
2022/04/01 06:11:06;;;;;;;68.65;38.60;;;;;;;7.33;100.00;98219.98;1756176;81;21159;-70
2022/04/01 06:14:18;;;;;;;92.25;43.52;;;;;;;7.39;100.00;98221.92;1755982;81;21041;-69
2022/04/01 06:17:35;;;;;;;71.95;38.73;;;;;;;7.47;100.00;98212.69;1619209;87;21620;-69
2022/04/01 06:20:07;;;;;;;82.00;40.05;;;;;;;7.48;100.00;98222.73;1755925;81;21509;-69
2022/04/01 06:22:37;;;;;;;89.92;45.35;;;;;;;7.58;100.00;98217.34;1756099;81;21044;-68
2022/04/01 06:25:18;;;;;;;85.28;42.85;;;;;;;7.62;100.00;98221.49;1753924;81;21201;-67
2022/04/01 06:27:44;;;;;;;96.82;46.48;;;;;;;7.65;100.00;98221.31;1753708;81;21051;-68
2022/04/01 06:30:14;;;;;;;102.55;44.53;;;;;;;7.63;100.00;98216.62;1756190;81;21049;-69
2022/04/01 06:33:18;;;;;;;91.50;46.65;;;;;;;7.67;100.00;98208.97;1755804;81;21037;-68
2022/04/01 06:36:03;;;;;;;106.43;51.30;;;;;;;7.73;100.00;98199.91;1665061;86;21182;-70
2022/04/01 06:38:48;;;;;;;114.32;50.63;;;;;;;7.83;100.00;98201.57;1755667;81;22956;-69
2022/04/01 06:41:19;;;;;;;104.72;49.35;;;;;;;7.86;100.00;98207.47;1756062;81;21045;-69
2022/04/01 06:43:48;;;;;;;101.60;50.83;;;;;;;7.90;100.00;98205.06;1755106;81;21076;-70
2022/04/01 06:46:17;;;;;;;102.82;46.40;;;;;;;7.95;100.00;98202.17;1751692;81;21487;-69
2022/04/01 06:48:52;;;;;;;105.55;48.38;;;;;;;8.02;100.00;98194.81;1755606;81;21059;-69
2022/04/01 06:51:39;;;;;;;87.88;47.85;;;;;;;8.04;100.00;98202.96;1725685;83;21581;-69
2022/04/01 06:54:20;;;;;;;94.60;45.28;;;;;;;8.10;100.00;98206.55;1686352;83;21080;-69
2022/04/01 06:57:06;;;;;;;91.35;46.23;;;;;;;8.12;100.00;98203.38;1725719;83;21521;-69
2022/04/01 06:59:36;;;;;;;;;;;;;;;8.25;100.00;98205.28;1724397;83;21589;-68
2022/04/01 07:02:04;;;;;;;71.90;37.45;;;;;;;8.36;100.00;98204.19;1718210;83;20220;-68
2022/04/01 07:04:31;;;;;;;64.47;36.58;;;;;;;8.26;100.00;98205.20;1718300;83;21158;-69
2022/04/01 07:06:59;;;;;;;68.12;35.65;;;;;;;8.28;100.00;98203.78;1718133;83;21041;-68
2022/04/01 07:09:26;;;;;;;68.40;35.45;;;;;;;8.52;100.00;98201.06;1718528;83;21014;-68
2022/04/01 07:11:53;;;;;;;63.15;33.80;;;;;;;8.38;100.00;98193.14;1718283;83;21072;-70
2022/04/01 07:14:20;;;;;;;49.90;30.10;;;;;;;8.35;100.00;98197.23;1718424;83;21037;-69
2022/04/01 07:16:48;;;;;;;54.38;32.83;;;;;;;8.52;100.00;98196.30;1718228;83;21053;-69
2022/04/01 07:19:15;;;;;;;52.95;32.65;;;;;;;8.42;100.00;98194.69;1691345;83;21048;-69
2022/04/01 07:21:42;;;;;;;53.15;32.13;;;;;;;8.45;100.00;98195.81;1718162;83;21132;-69
2022/04/01 07:24:09;;;;;;;54.50;30.62;;;;;;;8.78;100.00;98199.97;1718118;83;21037;-69
2022/04/01 07:26:35;;;;;;;53.48;30.62;;;;;;;8.52;100.00;98191.05;1718293;83;21553;-69
2022/04/01 07:29:04;;;;;;;58.20;32.63;;;;;;;8.50;100.00;98188.50;1717971;83;21057;-69
2022/04/01 07:34:32;;;;;;;62.65;33.00;;;;;;;8.55;100.00;98196.94;1718288;83;21080;-69
2022/04/01 07:36:58;;;;;;;57.03;31.62;;;;;;;8.56;100.00;98186.84;1718180;83;21073;-69
2022/04/01 07:39:27;;;;;;;49.83;30.68;;;;;;;8.63;100.00;98189.07;1718365;83;21065;-70
2022/04/01 07:41:53;;;;;;;57.98;32.33;;;;;;;8.71;100.00;98201.28;1718257;83;21228;-70
2022/04/01 07:44:22;;;;;;;62.40;33.20;;;;;;;8.70;100.00;98200.91;1718238;83;21594;-69
2022/04/01 07:46:51;;;;;;;61.80;31.48;;;;;;;8.67;100.00;98197.14;1718098;83;21170;-70
2022/04/01 07:49:18;;;;;;;59.63;32.42;;;;;;;8.70;100.00;98191.73;1718845;82;21022;-69
2022/04/01 07:51:45;;;;;;;54.00;31.85;;;;;;;8.91;100.00;98193.52;1747969;82;21066;-70
2022/04/01 07:54:14;;;;;;;49.98;32.42;;;;;;;8.90;100.00;98183.46;1747973;82;21195;-69
2022/04/01 07:56:42;;;;;;;52.85;29.35;;;;;;;8.94;100.00;98179.72;1747870;82;21057;-69
2022/04/01 07:59:10;;;;;;;61.92;30.50;;;;;;;9.00;100.00;98179.34;1747926;82;21026;-68
2022/04/01 08:01:38;;;;;;;61.20;31.68;;;;;;;9.07;100.00;98173.25;1748073;81;21176;-68
2022/04/01 08:04:04;;;;;;;52.15;28.35;;;;;;;9.12;100.00;98169.03;1747973;82;21049;-68
2022/04/01 08:06:32;;;;;;;51.42;26.93;;;;;;;9.19;100.00;98167.70;1748076;81;22170;-68
2022/04/01 08:08:59;;;;;;;59.23;32.50;;;;;;;9.27;100.00;98162.83;1748145;82;21102;-69
2022/04/01 08:11:26;;;;;;;65.47;31.93;;;;;;;9.30;100.00;98159.16;1748156;81;21587;-69
2022/04/01 08:13:54;;;;;;;69.65;32.95;;;;;;;9.36;100.00;98158.75;1747852;82;20999;-67
2022/04/01 08:16:23;;;;;;;64.95;31.93;;;;;;;9.40;100.00;98155.83;1748027;81;21529;-70
2022/04/01 08:18:49;;;;;;;59.85;32.00;;;;;;;9.49;100.00;98153.57;1747921;82;21170;-67
2022/04/01 08:21:17;;;;;;;60.25;30.37;;;;;;;9.54;100.00;98156.26;1748141;81;21608;-69
2022/04/01 08:23:45;;;;;;;51.00;30.02;;;;;;;9.56;100.00;98154.86;1748208;81;21017;-70
2022/04/01 08:26:12;;;;;;;61.33;31.93;;;;;;;9.60;100.00;98147.16;1748185;81;21112;-70
2022/04/01 08:28:39;;;;;;;64.60;34.20;;;;;;;9.64;100.00;98137.66;1748234;82;21044;-68
2022/04/01 08:31:08;;;;;;;59.95;31.10;;;;;;;9.71;100.00;98132.85;1748106;82;21671;-68
2022/04/01 08:33:36;;;;;;;63.85;33.13;;;;;;;9.80;100.00;98142.77;1748051;82;21096;-69
2022/04/01 08:36:03;;;;;;;54.80;30.55;;;;;;;9.86;100.00;98143.66;1747842;81;21061;-69
2022/04/01 08:38:30;;;;;;;50.12;26.15;;;;;;;9.88;100.00;98140.45;1748146;81;21050;-69
2022/04/01 08:40:57;;;;;;;63.60;32.03;;;;;;;9.95;100.00;98147.95;1748219;81;20990;-69
2022/04/01 08:43:26;;;;;;;57.33;30.82;;;;;;;10.03;100.00;98145.64;1748258;82;21120;-69
2022/04/01 08:45:55;;;;;;;57.27;30.85;;;;;;;10.04;100.00;98145.55;1748178;81;21517;-69
2022/04/01 08:48:21;;;;;;;55.45;29.87;;;;;;;10.03;100.00;98140.38;1748426;82;21022;-68
2022/04/01 08:50:49;;;;;;;47.30;24.80;;;;;;;10.05;100.00;98130.60;1728407;82;21101;-70
2022/04/01 08:53:17;;;;;;;67.10;31.25;;;;;;;10.09;100.00;98137.35;1718405;83;21053;-69
2022/04/01 08:55:49;;;;;;;66.42;33.58;;;;;;;10.14;100.00;98144.45;1718163;83;21096;-68
2022/04/01 08:58:19;;;;;;;59.42;32.13;;;;;;;10.18;100.00;98146.42;1718533;83;20999;-69
2022/04/01 09:00:47;;;;;;;59.60;30.50;;;;;;;10.21;100.00;98148.36;1718373;83;21032;-69
2022/04/01 09:03:16;;;;;;;62.98;32.45;;;;;;;10.17;100.00;98154.80;1718172;83;21065;-69
2022/04/01 09:05:54;;;;;;;64.95;33.92;;;;;;;10.15;100.00;98157.99;1718335;83;21041;-68
2022/04/01 09:08:32;;;;;;;68.80;32.48;;;;;;;10.15;100.00;98143.53;1718700;83;21204;-69
2022/04/01 09:11:02;;;;;;;61.95;34.08;;;;;;;10.12;100.00;98145.02;1718389;83;21049;-70
2022/04/01 09:13:42;;;;;;;66.72;34.98;;;;;;;10.10;100.00;98146.94;1718492;83;21546;-69
2022/04/01 09:16:32;;;;;;;63.80;35.78;;;;;;;10.13;100.00;98158.56;1717994;83;21298;-69
2022/04/01 09:19:03;;;;;;;61.68;34.30;;;;;;;10.20;100.00;98164.27;1718224;83;22429;-69
2022/04/01 09:21:33;;;;;;;65.75;34.65;;;;;;;10.17;100.00;98166.63;1718370;83;21237;-70
2022/04/01 09:24:01;;;;;;;73.02;37.42;;;;;;;9.98;100.00;98168.77;1718274;83;21028;-69
2022/04/01 09:26:35;;;;;;;59.63;33.40;;;;;;;9.90;100.00;98165.83;1718377;83;21061;-68
2022/04/01 09:29:05;;;;;;;69.92;38.20;;;;;;;9.87;100.00;98157.19;1718525;83;21097;-69
2022/04/01 09:31:38;;;;;;;77.20;39.15;;;;;;;9.84;100.00;98149.48;1737301;82;21097;-69
2022/04/01 09:34:06;;;;;;;79.90;40.35;;;;;;;9.86;100.00;98156.80;1748430;82;21821;-69
2022/04/01 09:36:36;;;;;;;74.20;35.33;;;;;;;9.92;100.00;98158.68;1748094;82;21046;-69
2022/04/01 09:39:10;;;;;;;76.90;38.23;;;;;;;9.92;100.00;98156.05;1748359;82;20999;-70
2022/04/01 09:41:42;;;;;;;78.85;41.40;;;;;;;9.97;100.00;98157.90;1748394;82;21062;-70
2022/04/01 09:44:20;;;;;;;73.92;38.42;;;;;;;9.98;100.00;98153.00;1748737;82;21089;-70
2022/04/01 09:46:50;;;;;;;70.45;37.00;;;;;;;9.99;100.00;98146.81;1748305;82;21230;-69
2022/04/01 09:49:39;;;;;;;60.80;35.95;;;;;;;10.05;100.00;98154.27;1748603;82;21003;-69
2022/04/01 09:52:12;;;;;;;65.62;37.25;;;;;;;10.15;100.00;98149.27;1748330;82;21081;-69
2022/04/01 09:54:50;;;;;;;64.00;32.98;;;;;;;10.20;100.00;98149.80;1748125;81;21553;-69
2022/04/01 09:57:19;;;;;;;65.30;33.10;;;;;;;10.23;100.00;98152.20;1748233;82;21061;-70
2022/04/01 09:59:49;;;;;;;64.30;35.48;;;;;;;10.26;100.00;98151.55;1748140;81;21058;-68
2022/04/01 10:02:15;;;;;;;55.05;30.80;;;;;;;10.32;100.00;98152.10;1748146;81;20991;-68
2022/04/01 10:04:43;;;;;;;69.85;34.38;;;;;;;10.39;100.00;98158.16;1748192;82;21081;-70
2022/04/01 10:07:10;;;;;;;64.40;35.08;;;;;;;10.47;100.00;98158.97;1748195;82;21041;-69
2022/04/01 10:09:37;;;;;;;60.45;31.20;;;;;;;10.50;100.00;98146.91;1748546;81;21581;-69
2022/04/01 10:12:09;;;;;;;58.73;31.12;;;;;;;10.52;100.00;98146.33;1748252;82;22164;-69
2022/04/01 10:14:38;;;;;;;55.92;30.20;;;;;;;10.56;100.00;98151.77;1748477;81;21017;-69
2022/04/01 10:17:04;;;;;;;56.85;29.32;;;;;;;10.59;100.00;98151.54;1748179;82;21049;-69
2022/04/01 10:19:37;;;;;;;58.28;30.05;;;;;;;10.62;100.00;98146.05;1748063;82;21029;-69
2022/04/01 10:22:04;;;;;;;70.70;36.65;;;;;;;10.68;100.00;98148.27;1748151;82;21041;-69
2022/04/01 10:24:46;;;;;;;68.92;36.58;;;;;;;10.77;100.00;98148.60;1748429;81;21318;-69
2022/04/01 10:27:24;;;;;;;70.62;35.98;;;;;;;10.77;100.00;98149.92;1748119;82;21044;-70
2022/04/01 10:29:56;;;;;;;67.05;35.58;;;;;;;10.84;100.00;98153.80;1748029;81;21041;-69
2022/04/01 10:32:27;;;;;;;66.45;35.23;;;;;;;10.96;100.00;98148.98;1721670;82;21124;-70
2022/04/01 10:35:00;;;;;;;65.22;33.42;;;;;;;10.98;100.00;98151.05;1748289;81;21096;-69
2022/04/01 10:37:30;;;;;;;69.27;34.35;;;;;;;11.01;100.00;98152.13;1748255;82;21120;-69
2022/04/01 10:40:06;;;;;;;59.20;31.70;;;;;;;11.04;100.00;98150.63;1748433;82;21557;-70
2022/04/01 10:42:37;;;;;;;67.65;35.95;;;;;;;10.98;100.00;98157.63;1748196;82;20994;-69
2022/04/01 10:45:22;;;;;;;77.30;38.20;;;;;;;10.87;100.00;98156.21;1748313;82;21025;-69
2022/04/01 10:53:42;;;;;;;66.17;36.70;;;;;;;10.81;100.00;98153.55;1718091;83;21132;-71
2022/04/01 10:56:24;;;;;;;81.57;38.83;;;;;;;10.89;100.00;98153.84;1718485;83;21574;-70
2022/04/01 10:59:11;;;;;;;;;;;;;;;11.00;100.00;98153.58;1720964;83;21754;-69
2022/04/01 11:01:57;;;;;;;68.90;37.50;;;;;;;11.05;100.00;98154.92;1701724;83;20137;-69
2022/04/01 11:04:27;;;;;;;61.13;36.85;;;;;;;11.13;100.00;98151.29;1690152;84;21214;-69
2022/04/01 11:07:05;;;;;;;76.47;38.70;;;;;;;11.22;100.00;98155.52;1690322;84;21013;-69
2022/04/01 11:09:51;;;;;;;67.58;33.15;;;;;;;11.30;100.00;98154.52;1689818;84;21064;-69
2022/04/01 11:12:31;;;;;;;68.87;36.33;;;;;;;11.32;100.00;98152.61;1690260;84;21229;-70
2022/04/01 11:17:47;;;;;;;72.80;39.23;;;;;;;11.45;100.00;98157.83;1689690;84;21068;-69
2022/04/01 11:20:22;;;;;;;78.55;38.38;;;;;;;11.47;100.00;98155.44;1689555;84;21128;-68
2022/04/01 11:23:00;;;;;;;80.30;42.17;;;;;;;11.48;100.00;98149.23;1689908;84;21092;-69
2022/04/01 11:25:35;;;;;;;79.80;41.35;;;;;;;11.63;100.00;98154.34;1690061;84;21613;-69
2022/04/01 11:28:10;;;;;;;81.42;41.98;;;;;;;11.61;100.00;98160.20;1689842;84;21775;-69
2022/04/01 11:30:44;;;;;;;85.38;44.73;;;;;;;11.60;100.00;98161.17;1689853;84;21131;-69
2022/04/01 11:33:16;;;;;;;84.37;44.88;;;;;;;11.59;100.00;98162.10;1689953;84;21037;-69
2022/04/01 11:35:45;;;;;;;82.45;45.30;;;;;;;11.55;100.00;98157.06;1690114;84;21056;-70
2022/04/01 11:38:18;;;;;;;95.10;47.15;;;;;;;11.54;100.00;98163.75;1690161;84;21064;-71
2022/04/01 11:40:47;;;;;;;77.78;39.58;;;;;;;11.52;100.00;98155.95;1690210;84;21553;-70
2022/04/01 11:43:18;;;;;;;87.40;44.42;;;;;;;11.22;100.00;98152.89;1690002;84;21286;-70
2022/04/01 11:45:48;;;;;;;80.92;43.75;;;;;;;11.23;100.00;98153.27;1690219;84;21037;-71
2022/04/01 11:48:28;;;;;;;76.00;37.75;;;;;;;11.30;100.00;98162.42;1690168;84;21061;-71
2022/04/01 11:51:04;;;;;;;86.17;43.48;;;;;;;11.36;100.00;98161.95;1721206;82;21568;-69
2022/04/01 11:53:37;;;;;;;85.70;44.35;;;;;;;11.40;100.00;98163.43;1734212;82;21621;-69
2022/04/01 11:56:08;;;;;;;83.52;43.55;;;;;;;11.48;100.00;98166.38;1734130;82;21171;-69